Scroll down
FLIGHT INFORMATION
United Airlines

UAL2711

At Arrival Gate

KIAH
 KORD
DATE: 2021-02-23
GATE: D4
GATE DEPARTURE: 21:55
TAKEOFF: 22:34
DATE: 2021-02-24
GATE: G9
LANDING: 00:26
GATE ARRIVAL: 00:33
FLIGHT DATA
Crew: 
Speed: 
486 kts
Altitude: 
37,024 ft
Stage Length: 
805.0 nm
Block Time: 
2.1 hrs
Flight Time: 
1.9 hrs
Fuel Used: 
29,020 lb
Cleared Route: KIAH RENNK COLET SUSHI WWELL INDIE TPAKK LIT ZAVEL FTZ GROOV CASHN VINCA MAROC TRICH TRTLL HIHRY RINNO JORJO MONKZ TONIE HAZIL RW28C
TRACK DATA
50,000 ft 1,000 kts
AIRCRAFT INFO AND CUMULATIVE STATS
Aircraft Type: 
B772
Registration: 
SELCAL: 
MRPQ
MSN/LN: 
28713 / 191
Operator: 
Total Flights: 
10
Total Block Time: 
23.7 hrs
Total Flight Time: 
21.1 hrs
Total Fuel Used: 
300,662 lb
DATALINK LOG | Newest first | Current as of: 2022-11-30 11:12:40
LABEL SEQUENCE CONTENT Dn/Up
QD585500:33 10.3▼ Dn
QC524900:26▼ Dn
2U0506KORD 232251Z 21008KT 10SM BKN100 BKN200 07/M01 A2985 RMK AO2 SLP111 T00671006▲ Up
GA3041GATE G9▲ Up
GR3031KORD 00:30 MAAS 00 YP/UM 00/00 WCHR/S/C 00/00/00▼ Dn
2S3030KORD▼ Dn
QB350422:34▼ Dn
QA552521:55 39.9▼ Dn
A34618NO MATCHING FLIGHT DATA AVAILABLE FROM ANSP▲ Up
B34617KIAH KORD UAL2711 N204UA ▼ Dn
2U4337KORD 232051Z 22006KT 10SM FEW110 BKN170 BKN250 07/M01 A2983 RMK AO2 SLP104 T00721006 50000▲ Up
2U4337KIAH 232053Z 21009KT 10SM FEW080 FEW250 26/04 A3004 RMK AO2 SLP172 T02610044 56037▲ Up
2S4313KIAH KORD▼ Dn
A33708NO MATCHING FLIGHT DATA AVAILABLE FROM ANSP▲ Up
B33707KIAH KORD UAL2711 N204UA ▼ Dn
A33304NO MATCHING FLIGHT DATA AVAILABLE FROM ANSP▲ Up
B33303KIAH KORD UAL2711 N204UA ▼ Dn
A33102NO MATCHING FLIGHT DATA AVAILABLE FROM ANSP▲ Up
B33102KIAH KORD UAL2711 N204UA ▼ Dn
A32800NO MATCHING FLIGHT DATA AVAILABLE FROM ANSP▲ Up
Q02659[LINK ACK]▲ Up
Q02659[LINK TEST]▼ Dn


AIRCRAFT HISTORY
FLIGHT DATE FLIGHT NO. ORIGIN DESTINATION CLEARED ROUTE BLOCK TIME FLIGHT TIME FUEL USED PILOT
2021-10-24UAL3890KIAH KMSO KIAH WLLIS LOA DOLEY FUZ LBL FQF BOY HIA LOLLO RW124 hrs3.7 hrs53,445 lbPete L.
2021-10-04UAL313KDEN KIAH KDEN BOGEI BCORP STAKR AZARO SLEEK BGD MQP TORNN REFYN OILLL DPLAN SSTAX MPORT DRLLR PTROL DOMNO SKLER CHUBS RW26R2.2 hrs1.8 hrs26,014 lbDan Downs
2021-05-03UAL2240KPDX KDEN KPDX PEGTY KELYY WANOS TOSEH WHAMY IMB BOI OCS MJANE MSTSH HIPEE FOLSM BBOCO FLATI ELLDO TOTTT YESSS BAACK BABAA HIMOM CELBI RW35L2.3 hrs2.1 hrs27,034 lbPete L.
2021-03-08UAL2390KORD KPDX KORD MYKIE MONNY JORDY ONL DDY BOY DBS BKE JKNOX MYTOE BAYYR HHOOD BLRUN SHAFR RW28R4.1 hrs3.8 hrs53,992 lbPete L.
2021-02-23UAL2711KIAH KORD KIAH RENNK COLET SUSHI WWELL INDIE TPAKK LIT ZAVEL FTZ GROOV CASHN VINCA MAROC TRICH TRTLL HIHRY RINNO JORJO MONKZ TONIE HAZIL RW28C2.1 hrs1.9 hrs29,020 lbKyle Weber
2021-02-21UAL2721KMSN KIAH KMSN PLL PIA STL TWRAY PLIED IGLOO LIT ELD PLANB CARPR MURFF ZEEKK BLUUZ ODISS BOZZZ KERNS RW26L2.5 hrs2.4 hrs31,857 lbKyle Weber
2021-02-20UAL9269KMSP KMSN KMSP TAXEE COULT LMFRY DLL KMSN0.7 hrs0.6 hrs9,174 lbKyle Weber
2021-02-19UAL219KORD KMSP KORD PMPKN NEATO DLLAN RONIC KAMMA BEERI ROBBY KBULL ZZING HENDR CMAAC KKILR HUGGI KRISP AFTYN JONZY GREAK DOLEE ZESTY RW12R1.3 hrs1.1 hrs17,202 lbKyle Weber
2021-02-19UAL219KDEN KORD KDEN NUGGS HIDEF BRSTO GASSS SNIPR EMMYS ZIRKL PWE IRK KORD2 hrs1.8 hrs24,730 lbMichael Roth
2021-02-13UAL624KIAH KDEN KIAH BBYSE SPICR WLLIS STYCK DOLEY FUZ SPS LBL HALEN KOORN IDOLL NIIXX HAGGR BSTON BOSSS CELBI RW35L2.3 hrs1.9 hrs28,194 lbDan Downs